Time;durP1;ratioP1;P1;durP2;ratioP2;P2;SDS_P1;SDS_P2;PMS_P1;PMS_P2;Temp;Humidity;BMP_temperature;BMP_pressure;BME280_temperature;BME280_humidity;BME280_pressure;Samples;Min_cycle;Max_cycle;Signal;HPM_P1;HPM_P2
2021/08/29 00:01:41;;;;;;;;;5.75;5.25;;;;;18.34;58.83;101487.63;5096772;27;45621;-87
2021/08/29 00:04:06;;;;;;;;;9.25;6.75;;;;;18.14;58.94;101458.56;5097003;27;46382;-85
2021/08/29 00:06:34;;;;;;;;;7.25;6.25;;;;;18.32;59.24;101481.63;5097075;27;45620;-86
2021/08/29 00:09:03;;;;;;;;;8.75;7.00;;;;;18.19;59.10;101451.84;5101348;27;46566;-85
2021/08/29 00:11:28;;;;;;;;;5.50;5.00;;;;;18.03;59.44;101433.81;5097079;27;45631;-85
2021/08/29 00:13:53;;;;;;;;;5.00;4.00;;;;;18.21;58.86;101457.88;5083923;27;45825;-85
2021/08/29 00:16:19;;;;;;;;;6.00;5.75;;;;;18.27;59.16;101475.88;5085529;27;46046;-86
2021/08/29 00:18:44;;;;;;;;;7.00;6.25;;;;;18.18;59.29;101459.97;5079199;27;47278;-83
2021/08/29 00:21:13;;;;;;;;;9.00;5.75;;;;;18.13;59.20;101455.06;5087004;27;45987;-83
2021/08/29 00:23:38;;;;;;;;;8.00;6.25;;;;;18.05;59.43;101441.66;5088677;27;45745;-85
2021/08/29 00:26:03;;;;;;;;;6.00;5.50;;;;;18.20;59.59;101479.22;5061234;27;45819;-85
2021/08/29 00:28:29;;;;;;;;;7.00;5.00;;;;;18.00;59.49;101446.53;5080822;27;45603;-85
2021/08/29 00:30:54;;;;;;;;;4.25;4.00;;;;;18.03;59.82;101468.28;5083641;27;46287;-87
2021/08/29 00:33:20;;;;;;;;;5.00;4.50;;;;;18.05;59.98;101462.84;5086681;27;45679;-84
2021/08/29 00:35:45;;;;;;;;;7.50;6.75;;;;;18.03;59.28;101467.44;5057683;28;46120;-86
2021/08/29 00:38:11;;;;;;;;;5.00;5.00;;;;;18.10;59.62;101460.63;5070646;27;48236;-87
2021/08/29 00:40:36;;;;;;;;;6.50;5.25;;;;;18.09;59.49;101466.91;5073663;27;48274;-84
2021/08/29 00:43:02;;;;;;;;;6.50;6.00;;;;;17.83;60.05;101426.81;5077282;27;46220;-85
2021/08/29 00:45:28;;;;;;;;;6.00;6.00;;;;;17.69;60.02;101410.44;5068951;28;45741;-85
2021/08/29 00:47:53;;;;;;;;;7.50;5.75;;;;;18.04;59.74;101471.78;5089859;27;46465;-85
2021/08/29 00:50:19;;;;;;;;;6.50;6.00;;;;;18.06;59.90;101464.53;5094035;27;46159;-84
2021/08/29 00:52:44;;;;;;;;;7.00;6.50;;;;;17.88;59.72;101435.19;5063300;27;45687;-84
2021/08/29 00:55:12;;;;;;;;;7.00;7.00;;;;;18.04;60.22;101459.38;5069310;28;45635;-84
2021/08/29 00:57:39;;;;;;;;;6.75;4.50;;;;;18.04;59.99;101453.22;5070919;27;47182;-86
2021/08/29 01:00:06;;;;;;;;;6.75;5.00;;;;;17.73;60.86;101409.19;5078467;27;46247;-86
2021/08/29 01:02:34;;;;;;;;;6.25;5.25;;;;;17.66;60.24;101410.69;5062669;27;45792;-85
2021/08/29 01:05:21;;;;;;;;;5.75;5.75;;;;;17.92;60.43;101443.72;5076007;27;46251;-85
2021/08/29 01:08:03;;;;;;;;;6.00;4.50;;;;;17.85;60.31;101445.22;5089707;27;45717;-84
2021/08/29 01:10:34;;;;;;;;;6.00;6.00;;;;;17.84;60.27;101440.91;5069588;27;47299;-85
2021/08/29 01:13:00;;;;;;;;;6.00;5.00;;;;;17.54;60.79;101397.50;5082380;27;45967;-84
2021/08/29 01:15:32;;;;;;;;;8.00;5.75;;;;;17.94;60.36;101461.16;5100410;27;45741;-84
2021/08/29 01:18:00;;;;;;;;;6.50;6.25;;;;;17.35;60.81;101360.38;5101407;27;47503;-87
2021/08/29 01:20:38;;;;;;;;;6.50;6.00;;;;;17.33;60.47;101364.94;5100265;27;48325;-86
2021/08/29 01:23:06;;;;;;;;;7.00;7.00;;;;;17.37;60.42;101362.91;5103310;27;45753;-83
2021/08/29 01:25:35;;;;;;;;;6.00;5.75;;;;;17.70;60.74;101420.94;5066234;28;45702;-84
2021/08/29 01:28:13;;;;;;;;;6.00;6.00;;;;;17.74;60.76;101424.13;5087341;27;45730;-84
2021/08/29 01:30:40;;;;;;;;;7.00;7.00;;;;;17.62;61.11;101402.19;5098150;27;45880;-84
2021/08/29 01:33:07;;;;;;;;;7.75;6.50;;;;;17.78;61.11;101441.44;5100134;27;45624;-87
2021/08/29 01:35:34;;;;;;;;;8.00;6.00;;;;;17.87;61.35;101453.88;5076154;27;45635;-87
2021/08/29 01:38:02;;;;;;;;;7.50;7.00;;;;;17.67;61.44;101430.94;5088441;27;47693;-85
2021/08/29 01:40:28;;;;;;;;;7.75;7.00;;;;;17.73;61.13;101457.75;5115031;27;47511;-84
2021/08/29 01:42:54;;;;;;;;;6.25;5.75;;;;;17.73;61.85;101447.16;5113583;27;45088;-83
2021/08/29 01:45:20;;;;;;;;;8.75;7.25;;;;;17.54;61.31;101421.38;5119593;27;45397;-83
2021/08/29 01:47:47;;;;;;;;;8.50;7.00;;;;;17.54;61.66;101426.66;5109610;27;45586;-83
2021/08/29 01:50:14;;;;;;;;;7.50;7.25;;;;;17.62;61.42;101439.28;5086552;27;48001;-84
2021/08/29 01:52:39;;;;;;;;;7.00;6.75;;;;;17.52;61.58;101422.50;5082025;27;45850;-85
2021/08/29 01:55:06;;;;;;;;;8.50;7.75;;;;;17.52;61.67;101436.56;5100048;27;45430;-84
2021/08/29 01:57:32;;;;;;;;;8.75;8.50;;;;;17.67;62.03;101458.28;5099005;27;46769;-84
2021/08/29 01:59:57;;;;;;;;;9.75;9.00;;;;;17.60;61.92;101450.03;5103360;27;46702;-83
2021/08/29 02:02:24;;;;;;;;;10.50;8.75;;;;;17.49;62.04;101439.47;5105913;27;46101;-84
2021/08/29 02:04:49;;;;;;;;;10.00;8.00;;;;;17.27;62.31;101404.41;5096655;27;45793;-83
2021/08/29 02:07:38;;;;;;;;;12.50;10.25;;;;;17.61;62.07;101461.47;5077551;27;47224;-85
2021/08/29 02:10:06;;;;;;;;;11.25;9.00;;;;;17.42;62.28;101442.81;5094441;27;45972;-84
2021/08/29 02:12:36;;;;;;;;;13.00;12.50;;;;;17.48;61.94;101447.59;5063934;27;46298;-84
2021/08/29 02:15:26;;;;;;;;;11.00;10.00;;;;;17.38;62.48;101428.97;5085077;27;45576;-84
2021/08/29 02:17:52;;;;;;;;;13.25;12.00;;;;;17.58;62.53;101454.59;5064069;27;48514;-84
2021/08/29 02:20:23;;;;;;;;;11.50;10.75;;;;;17.59;62.67;101476.66;5074646;27;47168;-84
2021/08/29 02:22:49;;;;;;;;;12.00;10.50;;;;;17.30;62.31;101426.16;5077547;27;46006;-85
2021/08/29 02:25:15;;;;;;;;;13.00;11.00;;;;;17.41;62.08;101447.25;5065149;27;46156;-84
2021/08/29 02:27:41;;;;;;;;;11.00;10.50;;;;;17.44;62.32;101459.41;5093303;27;47541;-85
2021/08/29 02:30:08;;;;;;;;;33.25;29.50;;;;;17.53;62.52;101462.13;5062000;27;47230;-85
2021/08/29 02:32:37;;;;;;;;;59.25;45.00;;;;;17.33;62.71;101436.47;5086694;27;46757;-85
2021/08/29 02:35:03;;;;;;;;;26.50;21.75;;;;;17.20;62.29;101414.69;5092018;27;45565;-84
2021/08/29 02:37:30;;;;;;;;;29.50;26.50;;;;;17.43;62.89;101465.69;5082627;27;47793;-84
2021/08/29 02:39:57;;;;;;;;;19.50;18.50;;;;;17.34;62.65;101443.47;5071216;27;47258;-83
2021/08/29 02:42:25;;;;;;;;;19.00;15.00;;;;;17.20;63.15;101428.78;5061291;28;45920;-85
2021/08/29 02:44:52;;;;;;;;;10.00;10.00;;;;;17.47;62.66;101467.09;5071826;27;45910;-80
2021/08/29 02:47:18;;;;;;;;;12.00;9.00;;;;;17.28;62.70;101441.34;5094053;27;46654;-85
2021/08/29 02:49:46;;;;;;;;;10.00;9.25;;;;;17.33;63.30;101444.44;5077969;27;47171;-84
2021/08/29 02:52:12;;;;;;;;;9.75;9.00;;;;;16.92;62.62;101370.34;5075925;27;45884;-85
2021/08/29 02:54:41;;;;;;;;;12.00;11.50;;;;;17.42;63.14;101461.34;5079651;27;46065;-85
2021/08/29 02:57:11;;;;;;;;;13.75;9.75;;;;;17.41;62.78;101457.88;5065997;28;46515;-84
2021/08/29 02:59:36;;;;;;;;;11.00;10.25;;;;;17.22;62.71;101433.91;5072896;27;46858;-84
2021/08/29 03:02:02;;;;;;;;;15.25;12.75;;;;;17.25;62.78;101440.78;5093112;27;45900;-85
2021/08/29 03:04:28;;;;;;;;;14.25;13.00;;;;;17.20;62.63;101435.88;5093222;27;45775;-84
2021/08/29 03:06:53;;;;;;;;;13.75;13.00;;;;;17.18;63.20;101435.16;5094091;27;46117;-84
2021/08/29 03:09:19;;;;;;;;;11.75;11.00;;;;;17.20;63.12;101436.72;5073920;27;47434;-84
2021/08/29 03:11:44;;;;;;;;;11.25;10.50;;;;;17.00;63.35;101408.47;5074659;27;46097;-84
2021/08/29 03:14:10;;;;;;;;;12.25;12.00;;;;;17.22;63.32;101455.09;5079813;27;46058;-84
2021/08/29 03:16:37;;;;;;;;;16.00;14.50;;;;;17.27;63.57;101462.69;5102292;27;45698;-81
2021/08/29 03:19:04;;;;;;;;;13.25;12.00;;;;;17.25;63.49;101469.91;5091139;27;45656;-81
2021/08/29 03:21:30;;;;;;;;;14.75;13.75;;;;;17.05;64.10;101434.53;5087316;27;45729;-86
2021/08/29 03:23:55;;;;;;;;;14.75;11.25;;;;;17.01;64.31;101439.22;5066612;28;45752;-83
2021/08/29 03:26:21;;;;;;;;;15.00;13.00;;;;;17.18;64.09;101456.34;5085876;27;45602;-82
2021/08/29 03:28:49;;;;;;;;;14.50;12.75;;;;;16.94;63.82;101414.28;5076813;27;46409;-82
2021/08/29 03:31:14;;;;;;;;;11.00;8.75;;;;;17.16;63.95;101448.53;5085575;27;45961;-82
2021/08/29 03:33:44;;;;;;;;;14.75;12.25;;;;;17.18;63.74;101456.34;5085265;27;45589;-84
2021/08/29 03:36:13;;;;;;;;;11.75;11.25;;;;;16.88;64.09;101398.91;5082356;27;45737;-84
2021/08/29 03:38:40;;;;;;;;;14.00;12.75;;;;;17.07;64.39;101425.47;5090623;27;48077;-83
2021/08/29 03:41:07;;;;;;;;;13.00;12.00;;;;;16.94;64.19;101411.63;5079897;27;45687;-83
2021/08/29 03:43:33;;;;;;;;;13.50;11.25;;;;;17.05;64.25;101432.72;5087520;27;45686;-83
2021/08/29 03:45:59;;;;;;;;;12.50;10.75;;;;;17.12;63.98;101435.66;5054722;28;47522;-84
2021/08/29 03:48:24;;;;;;;;;10.00;8.00;;;;;17.04;63.93;101414.31;5078499;27;46261;-85
2021/08/29 03:50:51;;;;;;;;;14.25;11.00;;;;;16.99;64.09;101408.56;5074344;27;46113;-85
2021/08/29 03:53:16;;;;;;;;;13.25;11.00;;;;;17.16;64.15;101431.81;5088513;27;45688;-84
2021/08/29 03:55:43;;;;;;;;;11.25;11.00;;;;;16.98;64.45;101398.94;5066882;27;46870;-83
2021/08/29 03:58:10;;;;;;;;;13.25;11.00;;;;;16.95;64.12;101394.75;5074176;27;47821;-82
2021/08/29 04:00:36;;;;;;;;;10.00;10.00;;;;;17.16;64.14;101424.72;5091931;27;45592;-84
2021/08/29 04:03:02;;;;;;;;;10.50;9.50;;;;;16.94;64.38;101385.16;5092466;27;45698;-82
2021/08/29 04:05:27;;;;;;;;;9.50;9.00;;;;;16.88;64.28;101383.03;5093445;27;46481;-84
2021/08/29 04:07:57;;;;;;;;;12.75;10.75;;;;;16.97;64.70;101403.41;5074942;27;48383;-85
2021/08/29 04:10:23;;;;;;;;;10.75;9.25;;;;;17.12;64.74;101435.66;5087706;27;45839;-83
2021/08/29 04:12:49;;;;;;;;;8.50;8.00;;;;;17.01;64.52;101425.16;5077885;27;45659;-84
2021/08/29 04:15:16;;;;;;;;;11.50;10.00;;;;;16.92;64.63;101405.59;5074209;27;48356;-84
2021/08/29 04:17:42;;;;;;;;;11.25;10.25;;;;;16.85;64.93;101396.50;5072446;27;46029;-85
2021/08/29 04:20:11;;;;;;;;;11.00;10.00;;;;;16.96;64.98;101416.75;5067269;27;45787;-82
2021/08/29 04:22:36;;;;;;;;;9.50;8.00;;;;;16.92;64.93;101404.75;5073195;27;45611;-85
2021/08/29 04:25:02;;;;;;;;;10.50;8.00;;;;;16.99;64.76;101420.00;5087444;27;47848;-84
2021/08/29 04:27:28;;;;;;;;;11.25;10.50;;;;;16.95;64.77;101418.56;5061829;27;47195;-84
2021/08/29 04:29:53;;;;;;;;;10.00;10.00;;;;;17.02;65.10;101442.72;5073383;27;45947;-85
2021/08/29 04:32:22;;;;;;;;;12.75;11.50;;;;;16.98;65.19;101436.84;5056940;28;46147;-87
2021/08/29 04:34:49;;;;;;;;;12.50;11.75;;;;;16.88;65.46;101427.19;5060645;27;47661;-85
2021/08/29 04:37:14;;;;;;;;;12.00;10.75;;;;;16.60;65.67;101402.19;5068865;28;47092;-86
2021/08/29 04:39:42;;;;;;;;;14.00;12.75;;;;;16.54;65.13;101392.06;5087787;27;45748;-85
2021/08/29 04:42:08;;;;;;;;;10.50;9.00;;;;;16.63;65.13;101405.41;5079084;27;45700;-86
2021/08/29 04:44:41;;;;;;;;;13.00;11.00;;;;;16.49;65.07;101396.91;5071038;27;47402;-85
2021/08/29 04:47:08;;;;;;;;;12.00;10.50;;;;;16.29;65.87;101370.34;5069776;27;48383;-85
2021/08/29 04:49:33;;;;;;;;;11.25;10.50;;;;;16.54;65.69;101403.50;5097474;27;45933;-85
2021/08/29 04:51:58;;;;;;;;;12.25;11.25;;;;;16.31;65.81;101378.97;5083480;27;45644;-84
2021/08/29 04:54:24;;;;;;;;;10.00;8.25;;;;;16.55;65.47;101423.72;5088653;27;46040;-85
2021/08/29 04:56:49;;;;;;;;;10.50;9.75;;;;;16.45;65.66;101398.16;5093539;27;46039;-85
2021/08/29 04:59:14;;;;;;;;;9.25;8.25;;;;;16.42;65.84;101398.38;5094485;27;45794;-84
2021/08/29 05:01:40;;;;;;;;;11.25;8.50;;;;;16.61;65.57;101435.63;5078792;27;45831;-87
2021/08/29 05:04:05;;;;;;;;;8.25;8.00;;;;;16.52;65.84;101420.50;5094741;27;45679;-84
2021/08/29 05:06:30;;;;;;;;;10.25;8.25;;;;;16.33;66.14;101397.34;5061895;28;48291;-84
2021/08/29 05:08:56;;;;;;;;;9.25;7.00;;;;;16.31;65.70;101404.56;5090455;27;45738;-84
2021/08/29 05:11:22;;;;;;;;;7.25;7.00;;;;;16.40;66.16;101416.22;5100847;27;45761;-82
2021/08/29 05:13:47;;;;;;;;;7.00;7.00;;;;;16.50;65.80;101433.00;5081528;27;46560;-82
2021/08/29 05:16:12;;;;;;;;;10.25;8.25;;;;;16.57;65.86;101444.75;5102056;27;45937;-84
2021/08/29 05:18:38;;;;;;;;;10.00;8.25;;;;;16.40;66.37;101408.28;5083124;27;45805;-83
2021/08/29 05:21:03;;;;;;;;;12.00;10.50;;;;;16.48;66.13;101441.03;5099409;27;45576;-83
2021/08/29 05:23:29;;;;;;;;;10.00;9.00;;;;;16.29;65.95;101404.72;5063632;27;47507;-84
2021/08/29 05:25:54;;;;;;;;;9.25;8.25;;;;;16.42;66.55;101440.69;5057701;28;47585;-83
2021/08/29 05:28:20;;;;;;;;;10.75;10.75;;;;;16.52;66.37;101458.34;5089650;27;46241;-84
2021/08/29 05:30:46;;;;;;;;;10.25;9.25;;;;;16.41;66.54;101450.44;5086866;27;46188;-87
2021/08/29 05:33:12;;;;;;;;;13.25;11.00;;;;;16.49;66.99;101463.88;5088680;27;46670;-83
2021/08/29 05:35:37;;;;;;;;;13.50;10.50;;;;;16.31;66.36;101441.59;5082834;27;46085;-84
2021/08/29 05:38:02;;;;;;;;;13.00;10.25;;;;;16.26;66.71;101431.38;5094858;27;45792;-84
2021/08/29 05:40:31;;;;;;;;;9.25;9.00;;;;;16.08;66.63;101406.47;5087251;27;45744;-85
2021/08/29 05:42:57;;;;;;;;;13.75;11.50;;;;;16.11;66.62;101408.00;5069669;27;47197;-83
2021/08/29 05:45:23;;;;;;;;;11.25;10.25;;;;;16.04;66.19;101402.38;5063746;27;48556;-86
2021/08/29 05:47:48;;;;;;;;;10.75;9.75;;;;;16.19;66.81;101419.66;5079975;27;45586;-84
2021/08/29 05:50:14;;;;;;;;;15.00;11.00;;;;;15.92;66.79;101371.66;5087155;27;45597;-85
2021/08/29 05:52:42;;;;;;;;;9.00;8.75;;;;;16.13;66.52;101401.63;5076396;27;48535;-85
2021/08/29 05:55:13;;;;;;;;;10.75;8.50;;;;;16.14;66.71;101402.47;5087807;27;45872;-86
2021/08/29 05:57:38;;;;;;;;;14.75;11.25;;;;;16.22;66.60;101416.75;5088407;27;45817;-85
2021/08/29 06:00:04;;;;;;;;;11.50;11.00;;;;;16.15;66.90;101398.84;5082134;27;45869;-84
2021/08/29 06:02:35;;;;;;;;;11.00;9.25;;;;;16.49;66.95;101452.47;5094455;27;46675;-84
2021/08/29 06:05:07;;;;;;;;;14.75;11.25;;;;;16.46;66.60;101442.16;5076530;27;47119;-85
2021/08/29 06:07:42;;;;;;;;;10.00;10.00;;;;;16.09;66.75;101376.41;5074887;27;45781;-84
2021/08/29 06:10:12;;;;;;;;;12.00;11.25;;;;;15.99;66.49;101364.06;5075605;27;45838;-85
2021/08/29 06:12:38;;;;;;;;;11.25;10.00;;;;;16.50;66.60;101436.47;5075019;27;48503;-85
2021/08/29 06:15:04;;;;;;;;;12.00;10.50;;;;;16.52;66.68;101439.81;5076501;27;48324;-82
2021/08/29 06:17:30;;;;;;;;;9.25;6.25;;;;;16.59;66.81;101454.25;5099612;27;45781;-83
2021/08/29 06:19:55;;;;;;;;;7.00;7.00;;;;;16.28;67.00;101410.13;5097582;27;45902;-83
2021/08/29 06:22:21;;;;;;;;;13.25;11.00;;;;;16.60;67.07;101458.59;5091372;27;45621;-84
2021/08/29 06:24:46;;;;;;;;;11.00;9.50;;;;;16.59;66.74;101456.06;5093084;27;45837;-84
2021/08/29 06:27:12;;;;;;;;;9.25;8.00;;;;;16.38;66.69;101422.47;5090089;27;45662;-84
2021/08/29 06:29:38;;;;;;;;;11.25;9.75;;;;;16.50;67.06;101439.13;5085491;27;45817;-85
2021/08/29 06:32:03;;;;;;;;;8.00;7.00;;;;;16.26;66.90;101398.81;5060844;28;48213;-85
2021/08/29 06:34:29;;;;;;;;;9.50;8.25;;;;;16.48;66.89;101442.84;5083347;27;46796;-84
2021/08/29 06:36:54;;;;;;;;;7.75;7.50;;;;;16.28;66.77;101404.81;5083347;27;45726;-84
2021/08/29 06:39:20;;;;;;;;;8.50;8.00;;;;;16.56;66.71;101443.91;5089259;27;45742;-83
2021/08/29 06:41:45;;;;;;;;;9.00;7.00;;;;;16.57;66.53;101437.63;5093018;27;46617;-83
2021/08/29 06:44:10;;;;;;;;;9.00;7.00;;;;;16.53;66.50;101427.44;5065254;28;47251;-82
2021/08/29 06:46:36;;;;;;;;;8.00;7.00;;;;;16.50;66.30;101417.97;5074118;27;45771;-82
2021/08/29 06:49:01;;;;;;;;;8.00;7.75;;;;;16.78;66.36;101459.72;5094725;27;45813;-82
2021/08/29 06:51:27;;;;;;;;;9.25;7.50;;;;;16.71;66.75;101442.66;5094651;27;48325;-84
2021/08/29 06:53:52;;;;;;;;;7.25;6.00;;;;;16.87;66.42;101460.75;5093279;27;47868;-83
2021/08/29 06:56:17;;;;;;;;;6.25;6.00;;;;;16.76;66.56;101440.47;5083223;27;45673;-82
2021/08/29 06:58:43;;;;;;;;;8.00;6.25;;;;;16.87;66.54;101458.09;5094906;27;45678;-84
2021/08/29 07:01:08;;;;;;;;;7.75;6.75;;;;;16.67;66.27;101430.66;5078613;27;48297;-84
2021/08/29 07:03:33;;;;;;;;;7.00;7.00;;;;;16.62;66.01;101405.56;5083973;27;46248;-82
2021/08/29 07:05:59;;;;;;;;;10.00;7.75;;;;;16.72;66.37;101422.34;5078465;27;46441;-84
2021/08/29 07:08:24;;;;;;;;;5.75;5.75;;;;;17.00;66.43;101460.56;5090374;27;45785;-83
2021/08/29 07:10:50;;;;;;;;;9.25;7.00;;;;;16.85;66.33;101444.13;5085927;27;45934;-83
2021/08/29 07:13:15;;;;;;;;;7.25;7.00;;;;;16.91;65.85;101440.13;5086278;27;47206;-84
2021/08/29 07:15:53;;;;;;;;;11.00;9.00;;;;;16.88;66.14;101430.66;5093815;27;45980;-86
2021/08/29 07:18:18;;;;;;;;;8.75;7.50;;;;;17.08;66.06;101468.69;5085989;27;45679;-83
2021/08/29 07:20:44;;;;;;;;;9.25;7.75;;;;;17.10;65.96;101461.47;5093536;27;47606;-82
2021/08/29 07:23:09;;;;;;;;;9.00;7.25;;;;;17.11;65.88;101463.97;5105392;27;46185;-84
2021/08/29 07:25:34;;;;;;;;;9.75;9.00;;;;;17.08;65.81;101451.00;5083776;27;45446;-84
2021/08/29 07:28:03;;;;;;;;;8.00;8.00;;;;;17.14;65.83;101461.06;5110851;27;45592;-84
2021/08/29 07:30:29;;;;;;;;;8.25;7.00;;;;;17.02;66.03;101434.78;5111562;27;45732;-83
2021/08/29 07:32:54;;;;;;;;;7.75;6.00;;;;;17.13;66.07;101459.38;5099165;27;46319;-83
2021/08/29 07:35:19;;;;;;;;;9.25;7.00;;;;;16.94;65.84;101421.38;5097029;27;45619;-85
2021/08/29 07:37:45;;;;;;;;;7.75;7.00;;;;;17.21;65.96;101461.41;5071461;28;45837;-83
2021/08/29 07:40:11;;;;;;;;;6.00;6.00;;;;;17.12;65.75;101444.47;5078511;28;48421;-83
2021/08/29 07:42:36;;;;;;;;;9.50;7.75;;;;;17.25;65.28;101457.50;5093780;27;46636;-83
2021/08/29 07:45:02;;;;;;;;;9.75;8.00;;;;;17.10;65.83;101443.75;5093776;27;45973;-82
2021/08/29 07:47:28;;;;;;;;;8.00;7.00;;;;;17.20;65.35;101457.91;5112085;27;45609;-82
2021/08/29 07:49:53;;;;;;;;;7.25;6.75;;;;;17.29;65.36;101458.91;5088953;28;48300;-84
2021/08/29 07:52:19;;;;;;;;;9.00;8.00;;;;;17.36;65.86;101470.66;5095106;27;45802;-82
2021/08/29 07:54:44;;;;;;;;;9.00;8.25;;;;;17.38;65.60;101474.00;5079851;28;45116;-85
2021/08/29 07:57:09;;;;;;;;;8.00;7.75;;;;;17.41;65.52;101471.13;5091221;27;45644;-84
2021/08/29 07:59:35;;;;;;;;;7.00;7.00;;;;;17.17;65.24;101420.22;5102213;27;45609;-83
2021/08/29 08:02:00;;;;;;;;;8.50;8.00;;;;;17.26;65.32;101440.66;5094858;27;45766;-83
2021/08/29 08:04:26;;;;;;;;;10.00;8.50;;;;;17.52;65.07;101472.84;5084534;27;45771;-83
2021/08/29 08:06:51;;;;;;;;;8.00;8.00;;;;;17.38;65.17;101442.22;5088167;27;45563;-83
2021/08/29 08:09:17;;;;;;;;;7.00;7.00;;;;;17.43;65.28;101455.09;5077215;27;45952;-84
2021/08/29 08:11:42;;;;;;;;;7.50;7.25;;;;;17.43;64.84;101455.94;5085569;27;47306;-82
2021/08/29 08:14:07;;;;;;;;;9.00;7.75;;;;;17.18;64.83;101413.97;5084957;27;45698;-83
2021/08/29 08:16:41;;;;;;;;;8.25;7.00;;;;;17.53;64.61;101461.28;5098131;27;45828;-81
2021/08/29 08:19:06;;;;;;;;;9.25;9.25;;;;;17.33;64.57;101431.19;5070803;27;47717;-82
2021/08/29 08:21:32;;;;;;;;;10.00;8.75;;;;;17.48;64.93;101452.88;5096184;27;45634;-83
2021/08/29 08:23:57;;;;;;;;;9.75;9.00;;;;;17.59;64.92;101458.97;5109410;27;45825;-85
2021/08/29 08:26:23;;;;;;;;;10.00;9.00;;;;;17.44;64.46;101427.59;5105308;27;46162;-82
2021/08/29 08:28:48;;;;;;;;;9.00;8.25;;;;;17.68;64.51;101459.13;5081581;27;48319;-83
2021/08/29 08:31:13;;;;;;;;;11.00;10.00;;;;;17.63;64.31;101454.22;5080521;27;47254;-85
2021/08/29 08:33:39;;;;;;;;;11.00;9.25;;;;;17.65;64.49;101457.59;5109675;27;46922;-84
2021/08/29 08:36:04;;;;;;;;;9.25;9.00;;;;;17.60;64.33;101452.66;5115404;27;45415;-82
2021/08/29 08:38:30;;;;;;;;;10.00;8.00;;;;;17.51;64.07;101423.47;5099950;27;46097;-85
2021/08/29 08:40:55;;;;;;;;;10.50;9.25;;;;;17.70;64.26;101470.44;5097728;27;46914;-83
2021/08/29 08:43:20;;;;;;;;;8.00;8.00;;;;;17.70;63.99;101460.69;5088770;27;45749;-85
2021/08/29 08:45:47;;;;;;;;;6.50;6.50;;;;;17.78;63.99;101473.25;5083303;27;45818;-83
2021/08/29 08:48:14;;;;;;;;;6.25;6.00;;;;;17.75;63.89;101473.53;5081467;27;46657;-83
2021/08/29 08:50:45;;;;;;;;;7.50;6.75;;;;;17.72;63.67;101455.22;5099274;27;45744;-83
2021/08/29 08:53:14;;;;;;;;;6.00;5.75;;;;;17.86;63.49;101468.97;5099783;27;45715;-84
2021/08/29 08:55:40;;;;;;;;;3.00;3.00;;;;;17.68;63.81;101437.91;5090468;27;46020;-84
2021/08/29 08:58:06;;;;;;;;;5.75;5.00;;;;;17.88;63.50;101460.84;5088379;27;45603;-86
2021/08/29 09:00:31;;;;;;;;;5.75;5.00;;;;;17.95;63.59;101473.44;5069931;28;47085;-85
2021/08/29 09:02:57;;;;;;;;;5.25;5.00;;;;;17.77;63.54;101447.72;5098996;27;45649;-85
2021/08/29 09:05:23;;;;;;;;;5.00;5.00;;;;;17.83;63.16;101444.50;5101762;27;46004;-85
2021/08/29 09:07:50;;;;;;;;;5.25;4.75;;;;;17.75;63.05;101441.72;5103018;27;45691;-84
2021/08/29 09:10:15;;;;;;;;;5.25;5.25;;;;;17.92;63.18;101454.34;5083599;27;47248;-84
2021/08/29 09:13:04;;;;;;;;;6.00;5.00;;;;;17.88;63.09;101442.28;5084285;27;46370;-82
2021/08/29 09:15:30;;;;;;;;;6.00;6.00;;;;;18.08;62.87;101467.91;5079773;27;45729;-85
2021/08/29 09:17:56;;;;;;;;;7.25;6.00;;;;;17.98;62.58;101449.31;5074073;27;46006;-84
2021/08/29 09:20:35;;;;;;;;;9.00;7.75;;;;;18.17;63.02;101466.25;5096646;27;46942;-86
2021/08/29 09:23:04;;;;;;;;;7.00;6.75;;;;;18.12;63.10;101444.59;5096558;27;45774;-83
2021/08/29 09:25:32;;;;;;;;;7.50;6.25;;;;;18.03;62.96;101422.38;5095926;27;45636;-83
2021/08/29 09:28:00;;;;;;;;;8.25;8.25;;;;;18.26;62.20;101458.28;5095729;27;45872;-84
2021/08/29 09:30:28;;;;;;;;;7.50;6.00;;;;;18.31;62.17;101471.97;5089181;27;46148;-84
2021/08/29 09:32:57;;;;;;;;;7.00;7.00;;;;;18.33;62.10;101462.06;5065494;28;46198;-84
2021/08/29 09:35:26;;;;;;;;;4.50;4.50;;;;;18.36;62.28;101466.25;5094212;27;45679;-87
2021/08/29 09:37:53;;;;;;;;;7.00;6.25;;;;;18.01;61.99;101390.69;5077302;27;48477;-84
2021/08/29 09:40:26;;;;;;;;;6.75;6.00;;;;;18.42;61.94;101469.19;5080689;27;46503;-85
2021/08/29 09:42:53;;;;;;;;;6.00;5.50;;;;;18.39;61.76;101453.56;5077560;27;45711;-86
2021/08/29 09:45:35;;;;;;;;;8.75;7.25;;;;;18.49;61.94;101464.19;5071011;28;45955;-84
2021/08/29 09:48:02;;;;;;;;;6.00;6.00;;;;;18.53;61.47;101462.06;5086012;27;46241;-86
2021/08/29 09:50:29;;;;;;;;;7.50;5.25;;;;;18.46;61.96;101440.59;5093214;27;46112;-87
2021/08/29 09:53:21;;;;;;;;;6.25;6.00;;;;;18.58;61.17;101454.56;5088517;27;46138;-82
2021/08/29 09:55:48;;;;;;;;;6.50;5.00;;;;;18.60;61.28;101453.47;5069720;27;45633;-83
2021/08/29 09:58:24;;;;;;;;;6.50;6.00;;;;;18.64;61.31;101457.50;5075635;28;48637;-84
2021/08/29 10:01:18;;;;;;;;;5.25;5.00;;;;;18.69;61.38;101457.06;5071659;27;47238;-84
2021/08/29 10:03:51;;;;;;;;;5.25;5.25;;;;;18.71;61.48;101452.47;5086380;27;45644;-83
2021/08/29 10:06:16;;;;;;;;;5.75;5.75;;;;;18.66;61.14;101447.59;5073240;28;45783;-85
2021/08/29 10:08:49;;;;;;;;;4.00;4.00;;;;;18.48;60.68;101405.94;5091178;27;46287;-83
2021/08/29 10:11:15;;;;;;;;;6.75;6.75;;;;;18.67;61.00;101436.00;5102096;27;46412;-87
2021/08/29 10:13:41;;;;;;;;;7.00;6.50;;;;;18.79;60.66;101440.16;5090720;27;45813;-86
2021/08/29 10:16:07;;;;;;;;;5.75;5.75;;;;;18.82;61.12;101460.28;5084284;27;45755;-86
2021/08/29 10:18:37;;;;;;;;;6.25;5.50;;;;;18.54;60.55;101403.59;5099211;27;48510;-84
2021/08/29 10:21:04;;;;;;;;;6.00;6.00;;;;;18.80;61.00;101443.66;5078348;27;46106;-83
2021/08/29 10:23:30;;;;;;;;;6.25;5.50;;;;;18.86;61.04;101451.06;5094307;27;45712;-83
2021/08/29 10:26:02;;;;;;;;;5.75;5.25;;;;;18.68;60.50;101419.06;5082115;27;45682;-84
2021/08/29 10:28:34;;;;;;;;;7.00;6.00;;;;;18.76;60.26;101435.16;5072522;27;47815;-85
2021/08/29 10:31:04;;;;;;;;;6.25;5.50;;;;;18.82;60.27;101441.72;5082484;27;46220;-84
2021/08/29 10:33:31;;;;;;;;;7.75;7.00;;;;;18.92;60.35;101457.63;5077160;27;45827;-84
2021/08/29 10:35:57;;;;;;;;;9.00;9.00;;;;;18.96;59.97;101454.53;5096736;27;45792;-84
2021/08/29 10:38:23;;;;;;;;;7.00;6.00;;;;;18.99;60.12;101451.63;5094531;27;45703;-85
2021/08/29 10:40:50;;;;;;;;;7.25;7.00;;;;;18.83;60.08;101411.53;5096863;27;46114;-87
2021/08/29 10:43:16;;;;;;;;;8.75;8.00;;;;;18.84;59.81;101403.41;5093982;27;45658;-83
2021/08/29 10:45:42;;;;;;;;;8.25;8.00;;;;;19.06;59.92;101441.22;5095369;27;45754;-82
2021/08/29 10:48:14;;;;;;;;;9.50;8.00;;;;;19.21;59.97;101456.59;5075535;27;47698;-83
2021/08/29 10:50:41;;;;;;;;;8.75;7.50;;;;;19.25;60.14;101455.31;5090549;27;46595;-84
2021/08/29 10:53:41;;;;;;;;;7.50;7.50;;;;;19.31;60.04;101445.09;5073097;27;45747;-84
2021/08/29 10:56:16;;;;;;;;;6.00;6.00;;;;;19.37;59.73;101439.19;5093687;27;46035;-85
2021/08/29 10:58:49;;;;;;;;;7.00;7.00;;;;;19.42;59.74;101436.94;5093459;27;45633;-82
2021/08/29 11:01:46;;;;;;;;;9.00;7.50;;;;;19.48;59.62;101433.75;5094434;27;45829;-83
2021/08/29 11:04:44;;;;;;;;;8.25;7.25;;;;;19.52;59.38;101438.59;5081217;27;45905;-83
2021/08/29 11:07:09;;;;;;;;;8.00;7.25;;;;;19.56;58.92;101432.00;5097256;27;45986;-83
2021/08/29 11:09:35;;;;;;;;;7.75;7.75;;;;;19.61;59.04;101432.41;5097009;27;46428;-83
2021/08/29 11:12:26;;;;;;;;;7.25;7.25;;;;;19.67;58.86;101421.19;5098190;27;45749;-82
2021/08/29 11:14:53;;;;;;;;;9.25;7.50;;;;;19.70;58.61;101422.72;5091684;27;45794;-83
2021/08/29 11:17:58;;;;;;;;;9.25;7.75;;;;;19.78;58.77;101406.84;5089923;27;45859;-82
2021/08/29 11:20:23;;;;;;;;;7.00;6.75;;;;;19.75;58.45;101390.38;5022732;28;45758;-83
2021/08/29 11:22:50;;;;;;;;;7.50;7.00;;;;;19.94;58.54;101416.81;5018656;28;47571;-84